AirNav   Duncan Aviation - Near you to keep you flying
 
 914 users online  

3AZ4 John C Lincoln Deer Valley Hospital Heliport
Phoenix, Arizona, USA

GOING TO PHOENIX?


FAA INFORMATION EFFECTIVE 08 SEPTEMBER 2022

Location

FAA Identifier: 3AZ4
Lat/Long: 33-39-57.2700N 112-06-55.1400W
33-39.954500N 112-06.919000W
33.6659083,-112.1153167
(estimated)
Elevation: 1380 ft. / 421 m (estimated)
Variation: 13E (1985)
Time zone: UTC -7 (year round; does not observe DST)
Zip code: 85027

Heliport Operations

Heliport use: Private use, MEDICAL
Activation date: 03/1988
Control tower: no
ARTCC: ALBUQUERQUE CENTER
FSS: PRESCOTT FLIGHT SERVICE STATION
Attendance: UNATNDD
Segmented circle: no
Lights: FOR PERIMETER LGTS CALL 602-879-6100.

Heliport Communications

WX ASOS at DVT (2.1 nm NE): 126.5 (623-587-7764)
WX ASOS at SDL (11 nm E): PHONE 480-483-3049
WX AWOS-3 at GEU (12 nm SW): PHONE 623-877-8609
WX AWOS-1 at 18AZ (14 nm NE): 125.625 (480-488-7882)
WX ASOS at PHX (15 nm S): PHONE 602-231-8557

Nearby radio navigation aids

VOR radial/distance  VOR name  Freq  Var
PXRr321/15.7PHOENIX VORTAC115.6012E
IWAr300/31.8WILLIE VORTAC113.3013E
BXKr056/37.7BUCKEYE VORTAC110.6014E

Heliport Services

Runway Information

Helipad H1

Dimensions: 55 x 55 ft. / 17 x 17 m
Surface: concrete
Runway edge lights: PERI
Latitude: 33-39.954500N
Longitude: 112-06.919000W
Elevation: 1380.0 ft.
Traffic pattern: leftleft

Heliport Ownership and Management from official FAA records

Ownership: Privately-owned
Owner: JOHN C LINCOLN DEER VALLEY HOSPITAL
19829 N 27TH AVE
PHOENIX, AZ 85021
Phone 623-879-6100
Manager: DONNY CHADDOCK
2500 WEST UTOPIA RD, SUITE 100
PHOENIX, AZ 85027
Phone (623) 580-5847
EXT 306118, CELL: 623-512-6803

Additional Remarks

A52-H1 60' BLDG 100' NW OF PAD
FOR CD CTC PHOENIX APCH AT 602-306-2565.

Instrument Procedures

There are no published instrument procedures at 3AZ4.

Some nearby airports with instrument procedures:

KDVT - Phoenix Deer Valley Airport (2 nm NE)
KSDL - Scottsdale Airport (11 nm E)
KGEU - Glendale Municipal Airport (12 nm SW)
KPHX - Phoenix Sky Harbor International Airport (15 nm S)
KLUF - Luke Air Force Base (16 nm SW)
KGYR - Phoenix Goodyear Airport (20 nm SW)
 
Loc | Ops | Rwys | IFR | FBO | Links
Com | Nav | Svcs | Stats | Notes
Area around 3AZ4 (John C Lincoln Deer Valley Hospital Heliport)
 
Road maps at: MapQuest Bing Google
 
Aerial photo
No photo
 
Sectional chart

 
Airport distance calculator
Flying to John C Lincoln Deer Valley Hospital Heliport? Find the distance to fly.

From to 3AZ4

Sunrise and sunset
Times for 02-Oct-2022
 Local
(UTC-7)
 Zulu
(UTC)
Morning civil twilight06:0013:00
Sunrise06:2513:25
Sunset18:1101:11
Evening civil twilight18:3601:36

Current date and time
Zulu (UTC)  02-Oct-2022 23:07:25
Local (UTC-7)  02-Oct-2022 16:07:25
 
METAR
KDVT 
3nm NE 
022253Z 21005KT 10SM CLR 34/11 A2985 RMK AO2 SLP082 T03390111
KSDL 
10nm E 
022253Z 18007KT 150V220 10SM CLR 34/11 A2986 RMK AO2 SLP084 T03440106
KGEU 
12nm SW 
022257Z VRB05KT 10SM FEW100 35/11 A2981
KPHX 
14nm S 
022251Z VRB03KT 10SM FEW100 SCT250 36/11 A2981 RMK AO2 SLP074 CB DSNT NW-N TCU DSNT SE T03560111 $
KLUF 
15nm SW 
022255Z AUTO 15005KT 10SM CLR 35/11 A2981 RMK AO2 SLP078 T03540111 $
KGYR 
20nm SW 
022247Z 18006KT 10SM SCT100 SCT250 35/14 A2983
TAF
KDVT 
3nm NE 
021720Z 0218/0318 18008KT P6SM FEW100 FEW150 FM022200 23009KT P6SM FEW100 FEW150 FM030400 03008KT P6SM FEW100 SCT150 SCT250 FM030900 VRB04KT P6SM FEW100 FEW150
KSDL 
10nm E 
021720Z 0218/0318 VRB04KT P6SM FEW100 FEW150 FM022100 21007KT P6SM FEW100 FEW150 FM030300 04005KT P6SM FEW100 SCT150 SCT250 FM030800 VRB03KT P6SM FEW100 FEW150
KPHX 
14nm S 
022102Z 0221/0324 16007KT P6SM FEW100 FEW150 FM022200 21007KT P6SM FEW100 FEW150 FM030000 25006KT P6SM FEW100 FEW150 FM030400 10005KT P6SM FEW100 SCT150 SCT250 FM031700 14008KT P6SM FEW100 FEW150 FM032100 28008KT P6SM FEW100 FEW150
NOTAMs
Click for the latest NOTAMs
NOTAMs are issued by the DoD/FAA and will open in a separate window not controlled by AirNav.

 

 
 

Would you like to see your business listed on this page?

 If your business provides an interesting product or service to pilots, flight crews, aircraft, or users of the John C Lincoln Deer Valley Hospital Heliport, you should consider listing it here.  To start the listing process, click on the button below
 
Add a business
 

Other Pages about John C Lincoln Deer Valley Hospital Heliport

Update a link
 
Copyright © AirNav, LLC. All rights reserved. Privacy Policy  Contact